sensor_id;sensor_type;location;lat;lon;timestamp;temperature;humidity
11083;DHT22;5595;50.186;8.468;2022-07-09T00:00:01;16.30;99.90
11083;DHT22;5595;50.186;8.468;2022-07-09T00:02:27;16.30;99.90
11083;DHT22;5595;50.186;8.468;2022-07-09T00:05:10;16.30;99.90
11083;DHT22;5595;50.186;8.468;2022-07-09T00:07:37;16.30;99.90
11083;DHT22;5595;50.186;8.468;2022-07-09T00:10:18;16.30;99.90
11083;DHT22;5595;50.186;8.468;2022-07-09T00:12:45;16.20;99.90
11083;DHT22;5595;50.186;8.468;2022-07-09T00:15:39;16.20;99.90
11083;DHT22;5595;50.186;8.468;2022-07-09T00:18:06;16.20;99.90
11083;DHT22;5595;50.186;8.468;2022-07-09T00:20:42;16.10;99.90
11083;DHT22;5595;50.186;8.468;2022-07-09T00:23:09;16.10;99.90
11083;DHT22;5595;50.186;8.468;2022-07-09T00:25:52;16.10;99.90
11083;DHT22;5595;50.186;8.468;2022-07-09T00:28:19;16.10;99.90
11083;DHT22;5595;50.186;8.468;2022-07-09T00:30:58;16.00;99.90
11083;DHT22;5595;50.186;8.468;2022-07-09T00:33:25;15.90;99.90
11083;DHT22;5595;50.186;8.468;2022-07-09T00:36:23;15.80;99.90
11083;DHT22;5595;50.186;8.468;2022-07-09T00:38:50;15.80;99.90
11083;DHT22;5595;50.186;8.468;2022-07-09T00:41:27;15.70;99.90
11083;DHT22;5595;50.186;8.468;2022-07-09T00:43:54;15.70;99.90
11083;DHT22;5595;50.186;8.468;2022-07-09T00:46:33;15.60;99.90
11083;DHT22;5595;50.186;8.468;2022-07-09T00:49:00;15.60;99.90
11083;DHT22;5595;50.186;8.468;2022-07-09T00:51:41;15.60;99.90
11083;DHT22;5595;50.186;8.468;2022-07-09T00:54:08;15.60;99.90
11083;DHT22;5595;50.186;8.468;2022-07-09T00:59:59;15.50;99.90
11083;DHT22;5595;50.186;8.468;2022-07-09T01:02:45;15.40;99.90
11083;DHT22;5595;50.186;8.468;2022-07-09T01:05:13;15.40;99.90
11083;DHT22;5595;50.186;8.468;2022-07-09T01:14:24;15.30;99.90
11083;DHT22;5595;50.186;8.468;2022-07-09T01:20:22;15.30;99.90
11083;DHT22;5595;50.186;8.468;2022-07-09T01:26:12;15.20;99.90
11083;DHT22;5595;50.186;8.468;2022-07-09T01:35:08;15.20;99.90
11083;DHT22;5595;50.186;8.468;2022-07-09T01:37:36;15.10;99.90
11083;DHT22;5595;50.186;8.468;2022-07-09T01:40:04;15.10;99.90
11083;DHT22;5595;50.186;8.468;2022-07-09T01:42:31;15.10;99.90
11083;DHT22;5595;50.186;8.468;2022-07-09T01:44:58;15.10;99.90
11083;DHT22;5595;50.186;8.468;2022-07-09T01:47:25;15.10;99.90
11083;DHT22;5595;50.186;8.468;2022-07-09T01:49:52;15.00;99.90
11083;DHT22;5595;50.186;8.468;2022-07-09T02:02:26;15.00;99.90
11083;DHT22;5595;50.186;8.468;2022-07-09T02:11:37;14.80;99.90
11083;DHT22;5595;50.186;8.468;2022-07-09T02:14:29;14.70;99.90
11083;DHT22;5595;50.186;8.468;2022-07-09T02:16:56;14.70;99.90
11083;DHT22;5595;50.186;8.468;2022-07-09T02:19:58;14.60;99.90
11083;DHT22;5595;50.186;8.468;2022-07-09T02:22:24;14.70;99.90
11083;DHT22;5595;50.186;8.468;2022-07-09T02:25:13;14.60;99.90
11083;DHT22;5595;50.186;8.468;2022-07-09T02:27:40;14.70;99.90
11083;DHT22;5595;50.186;8.468;2022-07-09T02:30:07;14.60;99.90
11083;DHT22;5595;50.186;8.468;2022-07-09T02:32:34;14.50;99.90
11083;DHT22;5595;50.186;8.468;2022-07-09T02:35:14;14.50;99.90
11083;DHT22;5595;50.186;8.468;2022-07-09T02:37:41;14.50;99.90
11083;DHT22;5595;50.186;8.468;2022-07-09T02:40:39;14.40;99.90
11083;DHT22;5595;50.186;8.468;2022-07-09T02:43:06;14.30;99.90
11083;DHT22;5595;50.186;8.468;2022-07-09T02:45:54;14.30;99.90
11083;DHT22;5595;50.186;8.468;2022-07-09T02:48:21;14.30;99.90
11083;DHT22;5595;50.186;8.468;2022-07-09T02:54:11;14.30;99.90
11083;DHT22;5595;50.186;8.468;2022-07-09T03:03:29;14.20;99.90
11083;DHT22;5595;50.186;8.468;2022-07-09T03:09:19;14.10;99.90
11083;DHT22;5595;50.186;8.468;2022-07-09T03:15:08;14.10;99.90
11083;DHT22;5595;50.186;8.468;2022-07-09T03:24:16;14.00;99.90
11083;DHT22;5595;50.186;8.468;2022-07-09T03:26:45;14.00;99.90
11083;DHT22;5595;50.186;8.468;2022-07-09T03:29:12;14.00;99.90
11083;DHT22;5595;50.186;8.468;2022-07-09T03:34:47;14.00;99.90
11083;DHT22;5595;50.186;8.468;2022-07-09T03:37:20;14.00;99.90
11083;DHT22;5595;50.186;8.468;2022-07-09T03:39:47;14.00;99.90
11083;DHT22;5595;50.186;8.468;2022-07-09T03:42:49;13.90;99.90
11083;DHT22;5595;50.186;8.468;2022-07-09T03:45:16;14.00;99.90
11083;DHT22;5595;50.186;8.468;2022-07-09T03:48:17;14.00;99.90
11083;DHT22;5595;50.186;8.468;2022-07-09T03:50:44;14.00;99.90
11083;DHT22;5595;50.186;8.468;2022-07-09T03:53:11;14.00;99.90
11083;DHT22;5595;50.186;8.468;2022-07-09T03:55:38;14.00;99.90
11083;DHT22;5595;50.186;8.468;2022-07-09T03:58:06;14.00;99.90
11083;DHT22;5595;50.186;8.468;2022-07-09T04:00:33;14.00;99.90
11083;DHT22;5595;50.186;8.468;2022-07-09T04:03:30;14.10;99.90
11083;DHT22;5595;50.186;8.468;2022-07-09T04:05:57;14.20;99.90
11083;DHT22;5595;50.186;8.468;2022-07-09T04:11:46;14.20;99.90
11083;DHT22;5595;50.186;8.468;2022-07-09T04:21:04;14.40;99.90
11083;DHT22;5595;50.186;8.468;2022-07-09T04:26:53;14.60;99.90
11083;DHT22;5595;50.186;8.468;2022-07-09T04:32:42;14.60;99.90
11083;DHT22;5595;50.186;8.468;2022-07-09T04:38:32;14.90;99.90
11083;DHT22;5595;50.186;8.468;2022-07-09T04:40:59;14.90;99.90
11083;DHT22;5595;50.186;8.468;2022-07-09T04:43:44;15.10;99.90
11083;DHT22;5595;50.186;8.468;2022-07-09T04:46:11;15.30;99.90
11083;DHT22;5595;50.186;8.468;2022-07-09T04:48:39;15.30;99.90
11083;DHT22;5595;50.186;8.468;2022-07-09T04:51:06;15.40;99.90
11083;DHT22;5595;50.186;8.468;2022-07-09T05:03:07;15.70;99.90
11083;DHT22;5595;50.186;8.468;2022-07-09T05:08:57;15.90;99.90
11083;DHT22;5595;50.186;8.468;2022-07-09T05:18:08;16.20;99.90
11083;DHT22;5595;50.186;8.468;2022-07-09T05:23:58;16.30;99.90
11083;DHT22;5595;50.186;8.468;2022-07-09T05:29:48;16.50;99.90
11083;DHT22;5595;50.186;8.468;2022-07-09T05:39:01;16.70;99.90
11083;DHT22;5595;50.186;8.468;2022-07-09T05:44:50;17.10;99.90
11083;DHT22;5595;50.186;8.468;2022-07-09T05:54:02;17.50;99.90
11083;DHT22;5595;50.186;8.468;2022-07-09T05:59:51;17.90;99.90
11083;DHT22;5595;50.186;8.468;2022-07-09T06:02:30;18.00;99.90
11083;DHT22;5595;50.186;8.468;2022-07-09T06:04:57;18.20;99.90
11083;DHT22;5595;50.186;8.468;2022-07-09T06:10:47;18.50;99.90
11083;DHT22;5595;50.186;8.468;2022-07-09T06:13:36;18.70;99.90
11083;DHT22;5595;50.186;8.468;2022-07-09T06:16:03;18.80;99.90
11083;DHT22;5595;50.186;8.468;2022-07-09T06:19:01;18.80;99.90
11083;DHT22;5595;50.186;8.468;2022-07-09T06:21:28;18.80;99.90
11083;DHT22;5595;50.186;8.468;2022-07-09T06:24:01;18.80;99.90
11083;DHT22;5595;50.186;8.468;2022-07-09T06:26:29;18.90;99.90
11083;DHT22;5595;50.186;8.468;2022-07-09T06:29:18;19.00;99.90
11083;DHT22;5595;50.186;8.468;2022-07-09T06:31:45;19.10;99.90
11083;DHT22;5595;50.186;8.468;2022-07-09T06:34:18;19.20;99.90
11083;DHT22;5595;50.186;8.468;2022-07-09T06:36:44;19.40;99.90
11083;DHT22;5595;50.186;8.468;2022-07-09T06:39:11;19.50;99.90
11083;DHT22;5595;50.186;8.468;2022-07-09T06:42:04;19.70;99.90
11083;DHT22;5595;50.186;8.468;2022-07-09T06:44:32;19.70;99.90
11083;DHT22;5595;50.186;8.468;2022-07-09T06:46:59;19.60;99.90
11083;DHT22;5595;50.186;8.468;2022-07-09T06:49:26;19.50;99.90
11083;DHT22;5595;50.186;8.468;2022-07-09T06:51:53;19.50;99.90
11083;DHT22;5595;50.186;8.468;2022-07-09T06:54:20;19.50;99.90
11083;DHT22;5595;50.186;8.468;2022-07-09T06:56:47;19.50;99.90
11083;DHT22;5595;50.186;8.468;2022-07-09T06:59:18;19.50;99.90
11083;DHT22;5595;50.186;8.468;2022-07-09T07:01:48;19.60;99.90
11083;DHT22;5595;50.186;8.468;2022-07-09T07:04:15;19.50;99.90
11083;DHT22;5595;50.186;8.468;2022-07-09T07:06:42;19.40;99.90
11083;DHT22;5595;50.186;8.468;2022-07-09T07:09:42;19.30;99.90
11083;DHT22;5595;50.186;8.468;2022-07-09T07:12:09;19.30;99.90
11083;DHT22;5595;50.186;8.468;2022-07-09T07:14:38;19.20;99.90
11083;DHT22;5595;50.186;8.468;2022-07-09T07:17:04;19.30;99.90
11083;DHT22;5595;50.186;8.468;2022-07-09T07:19:59;19.40;99.90
11083;DHT22;5595;50.186;8.468;2022-07-09T07:22:28;19.70;99.90
11083;DHT22;5595;50.186;8.468;2022-07-09T07:24:55;19.90;99.90
11083;DHT22;5595;50.186;8.468;2022-07-09T07:27:22;20.20;99.90
11083;DHT22;5595;50.186;8.468;2022-07-09T07:30:28;20.40;99.90
11083;DHT22;5595;50.186;8.468;2022-07-09T07:32:58;20.50;99.90
11083;DHT22;5595;50.186;8.468;2022-07-09T07:35:25;20.60;99.90
11083;DHT22;5595;50.186;8.468;2022-07-09T07:37:52;20.80;99.90
11083;DHT22;5595;50.186;8.468;2022-07-09T07:40:21;21.00;99.90
11083;DHT22;5595;50.186;8.468;2022-07-09T07:42:49;21.30;99.90
11083;DHT22;5595;50.186;8.468;2022-07-09T07:48:40;21.40;99.90
11083;DHT22;5595;50.186;8.468;2022-07-09T07:54:29;21.30;99.90
11083;DHT22;5595;50.186;8.468;2022-07-09T07:56:56;21.40;99.90
11083;DHT22;5595;50.186;8.468;2022-07-09T07:59:23;21.50;99.90
11083;DHT22;5595;50.186;8.468;2022-07-09T08:05:02;21.80;99.90
11083;DHT22;5595;50.186;8.468;2022-07-09T08:10:55;21.80;99.90
11083;DHT22;5595;50.186;8.468;2022-07-09T08:13:22;21.50;99.90
11083;DHT22;5595;50.186;8.468;2022-07-09T08:15:49;21.30;99.90
11083;DHT22;5595;50.186;8.468;2022-07-09T08:18:16;21.30;99.90
11083;DHT22;5595;50.186;8.468;2022-07-09T08:20:44;21.50;99.90
11083;DHT22;5595;50.186;8.468;2022-07-09T08:23:13;21.80;99.90
11083;DHT22;5595;50.186;8.468;2022-07-09T08:25:40;21.80;99.90
11083;DHT22;5595;50.186;8.468;2022-07-09T08:28:07;22.00;99.90
11083;DHT22;5595;50.186;8.468;2022-07-09T08:30:33;22.00;99.90
11083;DHT22;5595;50.186;8.468;2022-07-09T08:33:01;22.00;99.90
11083;DHT22;5595;50.186;8.468;2022-07-09T08:35:28;22.20;99.90
11083;DHT22;5595;50.186;8.468;2022-07-09T08:37:56;22.20;99.90
11083;DHT22;5595;50.186;8.468;2022-07-09T08:40:25;22.00;99.90
11083;DHT22;5595;50.186;8.468;2022-07-09T08:42:57;21.90;99.90
11083;DHT22;5595;50.186;8.468;2022-07-09T08:45:28;22.10;99.90
11083;DHT22;5595;50.186;8.468;2022-07-09T08:47:56;22.40;99.90
11083;DHT22;5595;50.186;8.468;2022-07-09T08:50:25;22.60;99.90
11083;DHT22;5595;50.186;8.468;2022-07-09T08:56:15;22.50;99.90
11083;DHT22;5595;50.186;8.468;2022-07-09T08:58:54;22.50;99.90
11083;DHT22;5595;50.186;8.468;2022-07-09T09:01:21;22.50;99.90
11083;DHT22;5595;50.186;8.468;2022-07-09T09:03:48;22.50;99.90
11083;DHT22;5595;50.186;8.468;2022-07-09T09:06:15;22.60;99.90
11083;DHT22;5595;50.186;8.468;2022-07-09T09:09:17;22.80;99.90
11083;DHT22;5595;50.186;8.468;2022-07-09T09:11:48;23.10;99.90
11083;DHT22;5595;50.186;8.468;2022-07-09T09:14:20;23.20;99.90
11083;DHT22;5595;50.186;8.468;2022-07-09T09:16:47;23.40;99.90
11083;DHT22;5595;50.186;8.468;2022-07-09T09:19:33;23.30;99.90
11083;DHT22;5595;50.186;8.468;2022-07-09T09:22:00;23.40;99.90
11083;DHT22;5595;50.186;8.468;2022-07-09T09:24:27;23.40;99.90
11083;DHT22;5595;50.186;8.468;2022-07-09T09:26:59;23.70;99.90
11083;DHT22;5595;50.186;8.468;2022-07-09T09:29:26;24.00;99.90
11083;DHT22;5595;50.186;8.468;2022-07-09T09:31:54;24.20;99.90
11083;DHT22;5595;50.186;8.468;2022-07-09T09:34:36;24.40;99.40
11083;DHT22;5595;50.186;8.468;2022-07-09T09:37:06;24.30;98.60
11083;DHT22;5595;50.186;8.468;2022-07-09T09:39:37;24.30;98.50
11083;DHT22;5595;50.186;8.468;2022-07-09T09:42:06;24.00;98.00
11083;DHT22;5595;50.186;8.468;2022-07-09T09:44:36;23.80;97.90
11083;DHT22;5595;50.186;8.468;2022-07-09T09:47:04;23.50;98.10
11083;DHT22;5595;50.186;8.468;2022-07-09T09:49:33;23.30;98.10
11083;DHT22;5595;50.186;8.468;2022-07-09T09:52:03;23.10;98.00
11083;DHT22;5595;50.186;8.468;2022-07-09T09:54:31;23.00;98.40
11083;DHT22;5595;50.186;8.468;2022-07-09T09:56:59;23.10;98.20
11083;DHT22;5595;50.186;8.468;2022-07-09T10:02:50;23.60;96.90
11083;DHT22;5595;50.186;8.468;2022-07-09T10:08:39;24.20;96.70
11083;DHT22;5595;50.186;8.468;2022-07-09T10:11:37;24.20;96.80
11083;DHT22;5595;50.186;8.468;2022-07-09T10:14:04;24.20;96.60
11083;DHT22;5595;50.186;8.468;2022-07-09T10:16:37;24.20;96.30
11083;DHT22;5595;50.186;8.468;2022-07-09T10:19:06;24.60;96.90
11083;DHT22;5595;50.186;8.468;2022-07-09T10:21:42;24.80;96.40
11083;DHT22;5595;50.186;8.468;2022-07-09T10:24:23;24.40;96.10
11083;DHT22;5595;50.186;8.468;2022-07-09T10:27:27;24.00;96.10
11083;DHT22;5595;50.186;8.468;2022-07-09T10:29:55;23.90;96.40
11083;DHT22;5595;50.186;8.468;2022-07-09T10:32:26;23.80;96.90
11083;DHT22;5595;50.186;8.468;2022-07-09T10:34:58;23.90;96.60
11083;DHT22;5595;50.186;8.468;2022-07-09T10:37:44;24.10;96.60
11083;DHT22;5595;50.186;8.468;2022-07-09T10:40:12;24.50;96.50
11083;DHT22;5595;50.186;8.468;2022-07-09T10:42:40;25.00;96.40
11083;DHT22;5595;50.186;8.468;2022-07-09T10:45:23;25.40;95.90
11083;DHT22;5595;50.186;8.468;2022-07-09T10:48:09;25.40;95.00
11083;DHT22;5595;50.186;8.468;2022-07-09T10:50:39;25.60;95.00
11083;DHT22;5595;50.186;8.468;2022-07-09T10:53:07;25.20;93.10
11083;DHT22;5595;50.186;8.468;2022-07-09T10:55:34;25.10;94.10
11083;DHT22;5595;50.186;8.468;2022-07-09T10:58:01;25.30;94.30
11083;DHT22;5595;50.186;8.468;2022-07-09T11:00:33;25.50;93.90
11083;DHT22;5595;50.186;8.468;2022-07-09T11:03:01;25.50;94.00
11083;DHT22;5595;50.186;8.468;2022-07-09T11:05:33;25.40;93.40
11083;DHT22;5595;50.186;8.468;2022-07-09T11:08:05;25.30;93.60
11083;DHT22;5595;50.186;8.468;2022-07-09T11:10:33;25.40;93.60
11083;DHT22;5595;50.186;8.468;2022-07-09T11:13:29;25.50;93.40
11083;DHT22;5595;50.186;8.468;2022-07-09T11:16:00;25.90;93.40
11083;DHT22;5595;50.186;8.468;2022-07-09T11:18:30;26.10;92.40
11083;DHT22;5595;50.186;8.468;2022-07-09T11:20:57;26.00;92.20
11083;DHT22;5595;50.186;8.468;2022-07-09T11:23:31;25.80;91.70
11083;DHT22;5595;50.186;8.468;2022-07-09T11:25:58;25.50;91.90
11083;DHT22;5595;50.186;8.468;2022-07-09T11:31:50;25.60;90.70
11083;DHT22;5595;50.186;8.468;2022-07-09T11:41:02;26.30;87.90
11083;DHT22;5595;50.186;8.468;2022-07-09T11:43:35;26.60;86.90
11083;DHT22;5595;50.186;8.468;2022-07-09T11:46:02;26.80;86.80
11083;DHT22;5595;50.186;8.468;2022-07-09T11:51:51;26.50;81.60
11083;DHT22;5595;50.186;8.468;2022-07-09T11:57:31;25.90;83.30
11083;DHT22;5595;50.186;8.468;2022-07-09T12:00:39;25.80;83.20
11083;DHT22;5595;50.186;8.468;2022-07-09T12:03:07;26.00;84.10
11083;DHT22;5595;50.186;8.468;2022-07-09T12:05:35;26.00;83.60
11083;DHT22;5595;50.186;8.468;2022-07-09T12:08:05;26.00;84.00
11083;DHT22;5595;50.186;8.468;2022-07-09T12:17:55;26.20;83.70
11083;DHT22;5595;50.186;8.468;2022-07-09T12:23:44;26.50;81.70
11083;DHT22;5595;50.186;8.468;2022-07-09T12:32:56;26.70;79.50
11083;DHT22;5595;50.186;8.468;2022-07-09T12:38:46;26.60;75.60
11083;DHT22;5595;50.186;8.468;2022-07-09T12:41:13;26.30;73.40
11083;DHT22;5595;50.186;8.468;2022-07-09T12:43:40;26.20;74.30
11083;DHT22;5595;50.186;8.468;2022-07-09T12:46:08;26.00;74.70
11083;DHT22;5595;50.186;8.468;2022-07-09T12:48:36;26.10;75.90
11083;DHT22;5595;50.186;8.468;2022-07-09T12:51:18;26.20;76.30
11083;DHT22;5595;50.186;8.468;2022-07-09T12:53:45;26.30;76.80
11083;DHT22;5595;50.186;8.468;2022-07-09T12:56:12;26.40;76.00
11083;DHT22;5595;50.186;8.468;2022-07-09T12:58:40;26.30;76.30
11083;DHT22;5595;50.186;8.468;2022-07-09T13:01:44;26.40;76.20
11083;DHT22;5595;50.186;8.468;2022-07-09T13:04:12;26.40;76.00
11083;DHT22;5595;50.186;8.468;2022-07-09T13:06:39;26.30;77.00
11083;DHT22;5595;50.186;8.468;2022-07-09T13:09:09;26.40;76.90
11083;DHT22;5595;50.186;8.468;2022-07-09T13:14:58;26.20;76.40
11083;DHT22;5595;50.186;8.468;2022-07-09T13:20:48;26.30;77.20
11083;DHT22;5595;50.186;8.468;2022-07-09T13:43:28;26.00;77.20
11083;DHT22;5595;50.186;8.468;2022-07-09T13:45:56;26.10;78.10
11083;DHT22;5595;50.186;8.468;2022-07-09T13:48:23;26.30;77.20
11083;DHT22;5595;50.186;8.468;2022-07-09T13:50:50;26.40;75.90
11083;DHT22;5595;50.186;8.468;2022-07-09T13:53:18;26.50;75.00
11083;DHT22;5595;50.186;8.468;2022-07-09T13:55:45;26.70;74.90
11083;DHT22;5595;50.186;8.468;2022-07-09T13:58:12;27.10;74.00
11083;DHT22;5595;50.186;8.468;2022-07-09T14:00:40;27.20;72.90
11083;DHT22;5595;50.186;8.468;2022-07-09T14:03:07;27.20;72.30
11083;DHT22;5595;50.186;8.468;2022-07-09T14:05:36;27.20;71.70
11083;DHT22;5595;50.186;8.468;2022-07-09T14:11:33;27.20;70.20
11083;DHT22;5595;50.186;8.468;2022-07-09T14:17:22;26.50;72.00
11083;DHT22;5595;50.186;8.468;2022-07-09T14:20:02;26.40;73.10
11083;DHT22;5595;50.186;8.468;2022-07-09T14:22:30;26.30;71.40
11083;DHT22;5595;50.186;8.468;2022-07-09T14:25:12;25.90;72.30
11083;DHT22;5595;50.186;8.468;2022-07-09T14:27:41;26.00;72.40
11083;DHT22;5595;50.186;8.468;2022-07-09T14:30:18;25.90;72.10
11083;DHT22;5595;50.186;8.468;2022-07-09T14:32:46;25.90;72.60
11083;DHT22;5595;50.186;8.468;2022-07-09T14:38:22;25.80;72.50
11083;DHT22;5595;50.186;8.468;2022-07-09T14:40:49;25.80;72.90
11083;DHT22;5595;50.186;8.468;2022-07-09T14:43:17;25.90;72.40
11083;DHT22;5595;50.186;8.468;2022-07-09T14:45:44;26.10;71.50
11083;DHT22;5595;50.186;8.468;2022-07-09T14:48:11;26.30;71.00
11083;DHT22;5595;50.186;8.468;2022-07-09T14:50:39;26.40;71.00
11083;DHT22;5595;50.186;8.468;2022-07-09T14:53:06;26.60;69.80
11083;DHT22;5595;50.186;8.468;2022-07-09T14:55:33;26.70;70.20
11083;DHT22;5595;50.186;8.468;2022-07-09T14:58:01;27.00;70.10
11083;DHT22;5595;50.186;8.468;2022-07-09T15:00:29;27.20;69.40
11083;DHT22;5595;50.186;8.468;2022-07-09T15:02:56;27.20;68.20
11083;DHT22;5595;50.186;8.468;2022-07-09T15:05:23;27.00;67.70
11083;DHT22;5595;50.186;8.468;2022-07-09T15:07:50;26.80;66.90
11083;DHT22;5595;50.186;8.468;2022-07-09T15:10:29;26.50;67.30
11083;DHT22;5595;50.186;8.468;2022-07-09T15:12:56;26.20;68.30
11083;DHT22;5595;50.186;8.468;2022-07-09T15:15:50;25.80;68.80
11083;DHT22;5595;50.186;8.468;2022-07-09T15:18:17;25.70;69.90
11083;DHT22;5595;50.186;8.468;2022-07-09T15:24:06;25.40;70.90
11083;DHT22;5595;50.186;8.468;2022-07-09T15:29:54;24.90;72.30
11083;DHT22;5595;50.186;8.468;2022-07-09T15:32:23;24.70;72.80
11083;DHT22;5595;50.186;8.468;2022-07-09T15:34:50;24.70;73.30
11083;DHT22;5595;50.186;8.468;2022-07-09T15:40:27;24.50;74.30
11083;DHT22;5595;50.186;8.468;2022-07-09T15:42:54;24.40;74.90
11083;DHT22;5595;50.186;8.468;2022-07-09T15:45:21;24.30;76.40
11083;DHT22;5595;50.186;8.468;2022-07-09T15:51:11;24.20;76.50
11083;DHT22;5595;50.186;8.468;2022-07-09T16:00:14;24.10;78.50
11083;DHT22;5595;50.186;8.468;2022-07-09T16:06:01;24.20;78.80
11083;DHT22;5595;50.186;8.468;2022-07-09T16:09:03;24.10;78.90
11083;DHT22;5595;50.186;8.468;2022-07-09T16:11:30;24.00;79.20
11083;DHT22;5595;50.186;8.468;2022-07-09T16:14:15;23.80;79.40
11083;DHT22;5595;50.186;8.468;2022-07-09T16:16:43;23.60;79.90
11083;DHT22;5595;50.186;8.468;2022-07-09T16:19:25;23.40;80.40
11083;DHT22;5595;50.186;8.468;2022-07-09T16:21:52;23.20;82.40
11083;DHT22;5595;50.186;8.468;2022-07-09T16:24:20;22.70;89.50
11083;DHT22;5595;50.186;8.468;2022-07-09T16:26:47;22.20;91.90
11083;DHT22;5595;50.186;8.468;2022-07-09T16:29:27;21.80;93.70
11083;DHT22;5595;50.186;8.468;2022-07-09T16:31:54;21.50;95.00
11083;DHT22;5595;50.186;8.468;2022-07-09T16:34:24;21.10;96.50
11083;DHT22;5595;50.186;8.468;2022-07-09T16:36:51;20.80;97.70
11083;DHT22;5595;50.186;8.468;2022-07-09T16:39:26;20.60;99.20
11083;DHT22;5595;50.186;8.468;2022-07-09T16:41:54;20.40;99.90
11083;DHT22;5595;50.186;8.468;2022-07-09T16:47:25;20.30;99.90
11083;DHT22;5595;50.186;8.468;2022-07-09T16:50:07;20.20;99.90
11083;DHT22;5595;50.186;8.468;2022-07-09T16:52:34;20.10;99.90
11083;DHT22;5595;50.186;8.468;2022-07-09T16:55:09;19.90;99.90
11083;DHT22;5595;50.186;8.468;2022-07-09T16:57:36;19.70;99.90
11083;DHT22;5595;50.186;8.468;2022-07-09T17:03:16;19.60;99.90
11083;DHT22;5595;50.186;8.468;2022-07-09T17:09:00;19.40;99.90
11083;DHT22;5595;50.186;8.468;2022-07-09T17:11:28;19.20;99.90
11083;DHT22;5595;50.186;8.468;2022-07-09T17:13:55;19.20;99.90
11083;DHT22;5595;50.186;8.468;2022-07-09T17:16:58;19.10;99.90
11083;DHT22;5595;50.186;8.468;2022-07-09T17:22:48;19.10;99.90
11083;DHT22;5595;50.186;8.468;2022-07-09T17:28:40;19.40;99.90
11083;DHT22;5595;50.186;8.468;2022-07-09T17:34:31;20.10;99.90
11083;DHT22;5595;50.186;8.468;2022-07-09T17:36:58;20.20;99.90
11083;DHT22;5595;50.186;8.468;2022-07-09T17:39:25;20.30;99.90
11083;DHT22;5595;50.186;8.468;2022-07-09T17:41:52;20.40;99.90
11083;DHT22;5595;50.186;8.468;2022-07-09T17:44:21;20.50;99.90
11083;DHT22;5595;50.186;8.468;2022-07-09T17:46:51;20.50;99.90
11083;DHT22;5595;50.186;8.468;2022-07-09T17:49:18;20.60;99.90
11083;DHT22;5595;50.186;8.468;2022-07-09T17:51:45;20.60;99.90
11083;DHT22;5595;50.186;8.468;2022-07-09T17:54:20;20.60;99.90
11083;DHT22;5595;50.186;8.468;2022-07-09T17:57:06;20.70;99.90
11083;DHT22;5595;50.186;8.468;2022-07-09T17:59:35;20.70;99.90
11083;DHT22;5595;50.186;8.468;2022-07-09T18:02:03;20.70;99.90
11083;DHT22;5595;50.186;8.468;2022-07-09T18:04:30;20.80;99.90
11083;DHT22;5595;50.186;8.468;2022-07-09T18:07:34;20.80;99.90
11083;DHT22;5595;50.186;8.468;2022-07-09T18:10:01;20.80;99.90
11083;DHT22;5595;50.186;8.468;2022-07-09T18:12:28;20.70;99.90
11083;DHT22;5595;50.186;8.468;2022-07-09T18:14:56;20.60;99.90
11083;DHT22;5595;50.186;8.468;2022-07-09T18:17:48;20.70;99.90
11083;DHT22;5595;50.186;8.468;2022-07-09T18:20:14;20.60;99.90
11083;DHT22;5595;50.186;8.468;2022-07-09T18:26:04;20.60;99.90
11083;DHT22;5595;50.186;8.468;2022-07-09T18:31:52;20.40;99.90
11083;DHT22;5595;50.186;8.468;2022-07-09T18:34:37;20.40;99.90
11083;DHT22;5595;50.186;8.468;2022-07-09T18:40:25;20.30;99.90
11083;DHT22;5595;50.186;8.468;2022-07-09T18:46:14;20.20;99.90
11083;DHT22;5595;50.186;8.468;2022-07-09T18:52:05;20.00;99.90
11083;DHT22;5595;50.186;8.468;2022-07-09T18:54:53;19.90;99.90
11083;DHT22;5595;50.186;8.468;2022-07-09T18:57:20;19.70;99.90
11083;DHT22;5595;50.186;8.468;2022-07-09T18:59:47;19.50;99.90
11083;DHT22;5595;50.186;8.468;2022-07-09T19:02:14;19.50;99.90
11083;DHT22;5595;50.186;8.468;2022-07-09T19:04:42;19.50;99.90
11083;DHT22;5595;50.186;8.468;2022-07-09T19:07:10;19.50;99.90
11083;DHT22;5595;50.186;8.468;2022-07-09T19:12:59;19.40;99.90
11083;DHT22;5595;50.186;8.468;2022-07-09T19:22:11;18.80;99.90
11083;DHT22;5595;50.186;8.468;2022-07-09T19:28:01;18.50;99.90
11083;DHT22;5595;50.186;8.468;2022-07-09T19:33:50;18.20;99.90
11083;DHT22;5595;50.186;8.468;2022-07-09T19:40:08;17.90;99.90
11083;DHT22;5595;50.186;8.468;2022-07-09T19:42:35;17.70;99.90
11083;DHT22;5595;50.186;8.468;2022-07-09T19:45:20;17.60;99.90
11083;DHT22;5595;50.186;8.468;2022-07-09T19:47:48;17.40;99.90
11083;DHT22;5595;50.186;8.468;2022-07-09T19:53:33;17.20;99.90
11083;DHT22;5595;50.186;8.468;2022-07-09T19:56:02;17.10;99.90
11083;DHT22;5595;50.186;8.468;2022-07-09T19:58:30;17.10;99.90
11083;DHT22;5595;50.186;8.468;2022-07-09T20:01:18;17.00;99.90
11083;DHT22;5595;50.186;8.468;2022-07-09T20:03:46;17.00;99.90
11083;DHT22;5595;50.186;8.468;2022-07-09T20:09:35;16.90;99.90
11083;DHT22;5595;50.186;8.468;2022-07-09T20:15:20;16.60;99.90
11083;DHT22;5595;50.186;8.468;2022-07-09T20:17:47;16.40;99.90
11083;DHT22;5595;50.186;8.468;2022-07-09T20:20:14;16.30;99.90
11083;DHT22;5595;50.186;8.468;2022-07-09T20:23:18;16.20;99.90
11083;DHT22;5595;50.186;8.468;2022-07-09T20:25:45;16.20;99.90
11083;DHT22;5595;50.186;8.468;2022-07-09T20:28:12;16.10;99.90
11083;DHT22;5595;50.186;8.468;2022-07-09T20:30:40;16.10;99.90
11083;DHT22;5595;50.186;8.468;2022-07-09T20:33:36;16.10;99.90
11083;DHT22;5595;50.186;8.468;2022-07-09T20:36:03;16.10;99.90
11083;DHT22;5595;50.186;8.468;2022-07-09T20:38:30;16.00;99.90
11083;DHT22;5595;50.186;8.468;2022-07-09T20:40:57;16.00;99.90
11083;DHT22;5595;50.186;8.468;2022-07-09T20:43:25;15.90;99.90
11083;DHT22;5595;50.186;8.468;2022-07-09T20:45:53;15.90;99.90
11083;DHT22;5595;50.186;8.468;2022-07-09T20:48:45;15.80;99.90
11083;DHT22;5595;50.186;8.468;2022-07-09T20:51:12;15.90;99.90
11083;DHT22;5595;50.186;8.468;2022-07-09T20:54:19;15.80;99.90
11083;DHT22;5595;50.186;8.468;2022-07-09T20:56:46;15.80;99.90
11083;DHT22;5595;50.186;8.468;2022-07-09T20:59:13;15.70;99.90
11083;DHT22;5595;50.186;8.468;2022-07-09T21:01:42;15.70;99.90
11083;DHT22;5595;50.186;8.468;2022-07-09T21:04:43;15.70;99.90
11083;DHT22;5595;50.186;8.468;2022-07-09T21:07:10;15.70;99.90
11083;DHT22;5595;50.186;8.468;2022-07-09T21:16:22;15.50;99.90
11083;DHT22;5595;50.186;8.468;2022-07-09T21:22:33;15.50;99.90
11083;DHT22;5595;50.186;8.468;2022-07-09T21:25:28;15.50;99.90
11083;DHT22;5595;50.186;8.468;2022-07-09T21:31:17;15.40;99.90
11083;DHT22;5595;50.186;8.468;2022-07-09T21:37:06;15.30;99.90
11083;DHT22;5595;50.186;8.468;2022-07-09T21:39:35;15.20;99.90
11083;DHT22;5595;50.186;8.468;2022-07-09T21:42:02;15.20;99.90
11083;DHT22;5595;50.186;8.468;2022-07-09T21:44:51;15.20;99.90
11083;DHT22;5595;50.186;8.468;2022-07-09T21:47:18;15.20;99.90
11083;DHT22;5595;50.186;8.468;2022-07-09T21:49:44;15.20;99.90
11083;DHT22;5595;50.186;8.468;2022-07-09T21:52:12;15.10;99.90
11083;DHT22;5595;50.186;8.468;2022-07-09T21:58:02;15.10;99.90